createdAt,value
2018-03-15T00:00:03.715Z,61.77
2018-03-15T00:01:00.444Z,48.34
2018-03-15T00:02:00.595Z,47.61
2018-03-15T00:03:00.734Z,48.58
2018-03-15T00:04:00.913Z,54.44
2018-03-15T00:05:01.026Z,62.74
2018-03-15T00:06:01.188Z,66.65
2018-03-15T00:07:01.356Z,57.13
2018-03-15T00:08:01.486Z,73.00
2018-03-15T00:09:01.677Z,47.61
2018-03-15T00:10:01.802Z,55.18
2018-03-15T00:11:01.951Z,51.03
2018-03-15T00:12:02.128Z,70.80
2018-03-15T00:13:02.236Z,70.80
2018-03-15T00:14:02.393Z,49.32
2018-03-15T00:15:02.542Z,47.85
2018-03-15T00:16:02.726Z,52.49
2018-03-15T00:17:02.838Z,51.27
2018-03-15T00:18:02.974Z,52.00
2018-03-15T00:19:03.146Z,75.44
2018-03-15T00:20:03.320Z,68.85
2018-03-15T00:21:03.409Z,47.12
2018-03-15T00:22:03.568Z,54.93
2018-03-15T00:23:03.713Z,51.51
2018-03-15T00:24:03.849Z,50.29
2018-03-15T00:25:04.074Z,47.12
2018-03-15T00:26:04.096Z,48.10
2018-03-15T00:27:04.254Z,46.63
2018-03-15T00:28:04.389Z,53.96
2018-03-15T00:29:04.537Z,51.03
2018-03-15T00:30:04.682Z,47.61
2018-03-15T00:31:04.814Z,47.36
2018-03-15T00:32:04.974Z,47.12
2018-03-15T00:33:05.114Z,55.66
2018-03-15T00:34:05.261Z,51.03
2018-03-15T00:35:05.411Z,51.03
2018-03-15T00:36:05.562Z,46.88
2018-03-15T00:37:05.718Z,47.12
2018-03-15T00:38:05.869Z,47.61
2018-03-15T00:39:06.009Z,74.46
2018-03-15T00:40:06.156Z,50.78
2018-03-15T00:41:06.300Z,51.27
2018-03-15T00:42:06.450Z,47.61
2018-03-15T00:43:06.611Z,46.88
2018-03-15T00:44:06.759Z,47.36
2018-03-15T00:45:06.941Z,55.42
2018-03-15T00:46:07.066Z,50.54
2018-03-15T00:47:07.219Z,51.27
2018-03-15T00:48:07.350Z,48.10
2018-03-15T00:49:07.504Z,47.12
2018-03-15T00:50:07.653Z,46.63
2018-03-15T00:51:07.792Z,54.20
2018-03-15T00:52:07.937Z,51.03
2018-03-15T00:53:08.090Z,51.03
2018-03-15T00:54:08.223Z,51.03
2018-03-15T00:55:08.369Z,49.80
2018-03-15T00:56:08.521Z,47.61
2018-03-15T00:57:08.685Z,53.47
2018-03-15T00:58:08.802Z,50.78
2018-03-15T00:59:08.954Z,50.54
2018-03-15T01:00:09.156Z,48.10
2018-03-15T01:01:09.228Z,48.10
2018-03-15T01:02:09.388Z,46.39
2018-03-15T01:03:09.523Z,53.71
2018-03-15T01:04:09.669Z,50.78
2018-03-15T01:05:09.865Z,50.54
2018-03-15T01:06:09.976Z,46.63
2018-03-15T01:07:10.134Z,47.36
2018-03-15T01:08:10.290Z,47.12
2018-03-15T01:09:10.407Z,53.22
2018-03-15T01:10:10.658Z,51.03
2018-03-15T01:13:42.427Z,45.41
2018-03-15T01:14:42.564Z,46.14
2018-03-15T01:15:42.718Z,54.69
2018-03-15T01:16:42.872Z,51.03
2018-03-15T01:17:43.023Z,50.54
2018-03-15T01:18:43.174Z,45.65
2018-03-15T01:19:43.324Z,49.80
2018-03-15T01:20:43.477Z,46.14
2018-03-15T01:21:43.626Z,54.69
2018-03-15T01:22:43.779Z,50.54
2018-03-15T01:23:43.931Z,50.78
2018-03-15T01:24:44.091Z,44.19
2018-03-15T01:25:44.243Z,72.75
2018-03-15T01:26:44.396Z,52.49
2018-03-15T01:27:44.558Z,50.78
2018-03-15T01:28:44.705Z,50.78
2018-03-15T01:29:44.853Z,44.92
2018-03-15T01:30:45.008Z,44.19
2018-03-15T01:31:45.166Z,45.17
2018-03-15T01:32:45.318Z,52.00
2018-03-15T01:33:45.469Z,69.82
2018-03-15T01:34:45.623Z,51.76
2018-03-15T01:35:45.772Z,45.17
2018-03-15T01:36:45.926Z,44.92
2018-03-15T01:37:46.070Z,45.90
2018-03-15T01:38:46.230Z,54.93
2018-03-15T01:39:46.389Z,50.29
2018-03-15T01:40:46.532Z,51.03
2018-03-15T01:41:46.679Z,45.65
2018-03-15T01:42:46.834Z,45.65
2018-03-15T01:43:46.995Z,44.92
2018-03-15T01:44:47.148Z,54.44
2018-03-15T01:45:47.300Z,50.78
2018-03-15T01:46:47.464Z,50.78
2018-03-15T01:47:47.603Z,44.43
2018-03-15T01:48:47.755Z,43.95
2018-03-15T01:49:47.910Z,44.68
2018-03-15T01:50:48.069Z,53.71
2018-03-15T01:51:48.216Z,50.78
2018-03-15T01:52:48.374Z,50.54
2018-03-15T01:53:48.534Z,44.19
2018-03-15T01:54:48.675Z,45.65
2018-03-15T01:55:48.829Z,46.63
2018-03-15T01:56:48.983Z,52.25
2018-03-15T01:57:49.143Z,51.03
2018-03-15T01:58:49.296Z,50.05
2018-03-15T01:59:49.447Z,49.32
2018-03-15T02:00:49.609Z,50.29
2018-03-15T02:01:49.751Z,44.92
2018-03-15T02:02:49.904Z,53.71
2018-03-15T02:03:50.056Z,50.78
2018-03-15T02:04:50.216Z,50.29
2018-03-15T02:05:50.364Z,46.39
2018-03-15T02:06:50.519Z,44.19
2018-03-15T02:07:50.664Z,54.20
2018-03-15T02:08:50.816Z,50.78
2018-03-15T02:09:50.969Z,59.57
2018-03-15T02:10:51.120Z,45.17
2018-03-15T02:11:51.273Z,45.65
2018-03-15T02:12:51.425Z,44.68
2018-03-15T02:13:51.575Z,53.22
2018-03-15T02:14:51.728Z,50.54
2018-03-15T02:15:51.880Z,51.03
2018-03-15T02:16:52.030Z,44.43
2018-03-15T02:17:52.194Z,44.19
2018-03-15T02:18:52.334Z,45.90
2018-03-15T02:19:52.482Z,53.47
2018-03-15T02:20:52.634Z,50.29
2018-03-15T02:21:52.793Z,50.54
2018-03-15T02:22:52.941Z,43.95
2018-03-15T02:23:53.158Z,44.68
2018-03-15T02:24:53.301Z,44.43
2018-03-15T02:25:53.455Z,53.22
2018-03-15T02:26:53.595Z,50.54
2018-03-15T02:27:53.765Z,50.78
2018-03-15T02:28:53.914Z,44.92
2018-03-15T02:29:54.060Z,47.12
2018-03-15T02:30:54.213Z,48.58
2018-03-15T02:31:54.363Z,54.20
2018-03-15T02:32:54.516Z,50.78
2018-03-15T02:33:54.676Z,51.27
2018-03-15T02:34:54.823Z,45.90
2018-03-15T02:35:54.976Z,47.12
2018-03-15T02:36:55.122Z,44.19
2018-03-15T02:37:55.276Z,53.22
2018-03-15T02:38:55.425Z,51.03
2018-03-15T02:39:55.584Z,50.29
2018-03-15T02:40:55.736Z,44.43
2018-03-15T02:41:55.887Z,45.90
2018-03-15T02:42:56.039Z,44.43
2018-03-15T02:43:56.191Z,54.20
2018-03-15T02:44:56.345Z,51.03
2018-03-15T02:45:56.494Z,50.78
2018-03-15T02:46:56.646Z,44.68
2018-03-15T02:47:56.803Z,46.14
2018-03-15T02:48:56.950Z,44.92
2018-03-15T02:49:57.103Z,53.96
2018-03-15T02:50:57.256Z,51.27
2018-03-15T02:51:57.414Z,50.29
2018-03-15T02:52:57.561Z,44.92
2018-03-15T02:53:57.719Z,44.92
2018-03-15T02:54:57.868Z,45.65
2018-03-15T02:55:58.020Z,52.98
2018-03-15T02:56:58.171Z,73.24
2018-03-15T02:57:58.323Z,50.78
2018-03-15T02:58:58.475Z,44.43
2018-03-15T02:59:58.632Z,47.36
2018-03-15T03:00:58.773Z,53.96
2018-03-15T03:01:58.926Z,50.78
2018-03-15T03:02:59.078Z,50.54
2018-03-15T03:03:59.237Z,44.92
2018-03-15T03:04:59.428Z,46.63
2018-03-15T03:05:59.534Z,44.68
2018-03-15T03:06:59.685Z,54.69
2018-03-15T03:07:59.837Z,50.54
2018-03-15T03:08:59.998Z,50.54
2018-03-15T03:10:00.150Z,45.65
2018-03-15T03:11:00.287Z,45.41
2018-03-15T03:12:00.443Z,44.43
2018-03-15T03:13:00.590Z,55.66
2018-03-15T03:14:00.743Z,50.54
2018-03-15T03:15:00.895Z,51.27
2018-03-15T03:16:01.045Z,44.92
2018-03-15T03:17:01.197Z,45.41
2018-03-15T03:18:01.349Z,45.65
2018-03-15T03:19:01.501Z,74.46
2018-03-15T03:20:01.652Z,51.03
2018-03-15T03:21:01.804Z,50.54
2018-03-15T03:22:01.962Z,44.68
2018-03-15T03:23:02.106Z,43.70
2018-03-15T03:24:02.258Z,44.43
2018-03-15T03:25:02.412Z,54.20
2018-03-15T03:26:02.570Z,51.76
2018-03-15T03:27:02.723Z,50.54
2018-03-15T03:28:02.867Z,44.92
2018-03-15T03:29:03.021Z,46.39
2018-03-15T03:30:03.226Z,52.49
2018-03-15T03:31:03.322Z,51.27
2018-03-15T03:32:03.471Z,51.27
2018-03-15T03:33:03.627Z,44.19
2018-03-15T03:34:03.790Z,45.65
2018-03-15T03:35:03.929Z,44.19
2018-03-15T03:36:04.082Z,51.51
2018-03-15T03:37:04.234Z,50.54
2018-03-15T03:38:04.395Z,75.68
2018-03-15T03:39:04.542Z,58.84
2018-03-15T03:40:04.702Z,75.68
2018-03-15T03:41:04.853Z,44.68
2018-03-15T03:42:05.003Z,53.71
2018-03-15T03:43:05.159Z,51.27
2018-03-15T03:44:05.302Z,50.78
2018-03-15T03:45:05.457Z,45.65
2018-03-15T03:46:05.614Z,44.43
2018-03-15T03:47:05.760Z,44.68
2018-03-15T03:48:05.912Z,74.46
2018-03-15T03:49:06.068Z,51.27
2018-03-15T03:50:06.223Z,50.78
2018-03-15T03:51:06.373Z,44.43
2018-03-15T03:52:06.527Z,45.65
2018-03-15T03:53:06.680Z,45.90
2018-03-15T03:54:06.830Z,52.73
2018-03-15T03:55:06.982Z,51.51
2018-03-15T03:56:07.133Z,50.78
2018-03-15T03:57:07.297Z,46.39
2018-03-15T03:58:07.446Z,70.31
2018-03-15T03:59:07.601Z,75.68
2018-03-15T04:00:07.751Z,50.78
2018-03-15T04:01:07.903Z,50.54
2018-03-15T04:02:08.055Z,44.19
2018-03-15T04:03:08.201Z,71.29
2018-03-15T04:04:08.369Z,51.51
2018-03-15T04:05:08.521Z,67.38
2018-03-15T04:06:08.668Z,51.03
2018-03-15T04:07:08.820Z,70.07
2018-03-15T04:08:08.974Z,69.09
2018-03-15T04:09:09.126Z,47.36
2018-03-15T04:10:09.278Z,74.22
2018-03-15T04:11:09.431Z,53.22
2018-03-15T04:12:09.590Z,50.78
2018-03-15T04:13:09.731Z,51.03
2018-03-15T04:14:09.883Z,45.90
2018-03-15T04:15:10.036Z,47.61
2018-03-15T04:16:10.195Z,45.90
2018-03-15T04:17:10.345Z,51.76
2018-03-15T04:18:10.499Z,73.00
2018-03-15T04:19:10.650Z,50.54
2018-03-15T04:20:10.804Z,69.58
2018-03-15T04:21:10.956Z,64.45
2018-03-15T04:22:11.108Z,73.73
2018-03-15T04:23:11.269Z,51.03
2018-03-15T04:24:11.418Z,73.49
2018-03-15T04:25:11.573Z,69.34
2018-03-15T04:26:11.726Z,46.88
2018-03-15T04:27:11.876Z,71.78
2018-03-15T04:28:12.026Z,69.09
2018-03-15T04:29:12.171Z,51.27
2018-03-15T04:30:12.331Z,76.17
2018-03-15T04:31:12.528Z,45.90
2018-03-15T04:32:12.643Z,72.02
2018-03-15T04:33:12.792Z,73.49
2018-03-15T04:34:12.932Z,68.60
2018-03-15T04:35:13.104Z,51.76
2018-03-15T04:36:13.257Z,51.76
2018-03-15T04:37:13.416Z,61.77
2018-03-15T04:38:13.570Z,54.69
2018-03-15T04:39:13.721Z,53.22
2018-03-15T04:40:13.873Z,54.69
2018-03-15T04:41:14.022Z,77.64
2018-03-15T04:42:14.178Z,58.35
2018-03-15T04:43:14.321Z,55.42
2018-03-15T04:44:14.490Z,67.63
2018-03-15T04:45:14.643Z,76.90
2018-03-15T04:46:14.790Z,71.53
2018-03-15T04:47:14.944Z,59.08
2018-03-15T04:48:15.093Z,60.30
2018-03-15T04:49:15.249Z,55.42
2018-03-15T04:50:15.393Z,73.73
2018-03-15T04:51:15.550Z,58.59
2018-03-15T04:52:15.693Z,57.62
2018-03-15T04:53:15.846Z,57.13
2018-03-15T04:54:15.999Z,60.06
2018-03-15T04:55:16.151Z,61.52
2018-03-15T04:56:16.305Z,64.45
2018-03-15T04:57:16.462Z,65.43
2018-03-15T04:58:16.610Z,74.22
2018-03-15T04:59:16.757Z,60.30
2018-03-15T05:00:16.908Z,75.44
2018-03-15T05:01:17.079Z,75.93
2018-03-15T05:02:17.233Z,72.51
2018-03-15T05:03:17.393Z,71.53
2018-03-15T05:04:17.545Z,74.95
2018-03-15T05:05:17.693Z,59.81
2018-03-15T05:06:17.842Z,75.93
2018-03-15T05:07:17.992Z,72.27
2018-03-15T05:08:18.147Z,74.46
2018-03-15T05:09:18.299Z,59.57
2018-03-15T05:10:18.450Z,72.27
2018-03-15T05:11:18.598Z,71.78
2018-03-15T05:12:18.750Z,60.79
2018-03-15T05:13:18.905Z,80.08
2018-03-15T05:14:19.053Z,61.28
2018-03-15T05:15:19.209Z,73.49
2018-03-15T05:16:19.362Z,61.04
2018-03-15T05:17:19.507Z,71.53
2018-03-15T05:18:19.661Z,57.86
2018-03-15T05:19:19.802Z,59.81
2018-03-15T05:20:19.968Z,60.06
2018-03-15T05:21:20.123Z,59.33
2018-03-15T05:22:20.268Z,71.53
2018-03-15T05:23:20.418Z,72.51
2018-03-15T05:24:20.571Z,73.97
2018-03-15T05:25:20.726Z,51.76
2018-03-15T05:26:20.872Z,74.71
2018-03-15T05:27:21.022Z,52.73
2018-03-15T05:28:21.173Z,75.20
2018-03-15T05:29:21.324Z,69.34
2018-03-15T05:30:21.476Z,55.42
2018-03-15T05:31:21.625Z,74.46
2018-03-15T05:32:21.780Z,70.80
2018-03-15T05:33:21.932Z,58.59
2018-03-15T05:34:22.082Z,73.49
2018-03-15T05:35:22.234Z,74.22
2018-03-15T05:36:22.382Z,73.73
2018-03-15T05:37:22.531Z,74.22
2018-03-15T05:38:22.683Z,70.31
2018-03-15T05:39:22.833Z,72.51
2018-03-15T05:40:22.985Z,75.93
2018-03-15T05:41:23.137Z,73.97
2018-03-15T05:42:23.289Z,72.02
2018-03-15T05:43:23.451Z,60.30
2018-03-15T05:44:23.590Z,73.73
2018-03-15T05:45:23.743Z,74.46
2018-03-15T05:46:23.888Z,75.44
2018-03-15T05:47:24.060Z,58.11
2018-03-15T05:48:24.208Z,59.08
2018-03-15T05:49:24.381Z,75.93
2018-03-15T05:50:24.533Z,66.41
2018-03-15T05:51:24.735Z,78.61
2018-03-15T05:52:24.843Z,74.46
2018-03-15T05:53:24.988Z,77.39
2018-03-15T05:54:25.139Z,50.54
2018-03-15T05:55:25.292Z,71.29
2018-03-15T05:56:25.458Z,73.97
2018-03-15T05:57:25.610Z,72.02
2018-03-15T05:58:25.773Z,76.42
2018-03-15T05:59:25.922Z,73.49
2018-03-15T06:00:26.078Z,73.73
2018-03-15T06:01:26.238Z,58.35
2018-03-15T06:02:26.385Z,68.12
2018-03-15T06:03:26.544Z,75.93
2018-03-15T06:04:26.680Z,71.53
2018-03-15T06:05:26.845Z,70.07
2018-03-15T06:06:26.992Z,72.51
2018-03-15T06:07:27.139Z,70.56
2018-03-15T06:08:27.294Z,77.15
2018-03-15T06:09:27.440Z,73.00
2018-03-15T06:10:27.601Z,69.09
2018-03-15T06:11:27.752Z,73.97
2018-03-15T06:12:27.905Z,74.46
2018-03-15T06:13:28.067Z,74.46
2018-03-15T06:14:28.207Z,52.00
2018-03-15T06:15:28.360Z,71.53
2018-03-15T06:16:28.511Z,77.64
2018-03-15T06:17:28.675Z,75.44
2018-03-15T06:18:28.834Z,73.73
2018-03-15T06:19:28.992Z,69.34
2018-03-15T06:20:29.145Z,72.27
2018-03-15T06:21:29.291Z,56.64
2018-03-15T06:22:29.446Z,74.71
2018-03-15T06:23:29.598Z,74.71
2018-03-15T06:24:29.751Z,73.00
2018-03-15T06:25:29.904Z,65.67
2018-03-15T06:26:30.065Z,73.00
2018-03-15T06:27:30.219Z,74.71
2018-03-15T06:28:30.371Z,61.77
2018-03-15T06:29:30.522Z,73.49
2018-03-15T06:30:30.672Z,64.45
2018-03-15T06:31:30.825Z,71.78
2018-03-15T06:32:30.978Z,78.86
2018-03-15T06:33:31.139Z,63.96
2018-03-15T06:34:31.287Z,73.97
2018-03-15T06:35:31.444Z,74.71
2018-03-15T06:36:31.596Z,73.24
2018-03-15T06:37:31.746Z,75.68
2018-03-15T06:38:31.900Z,72.02
2018-03-15T06:39:32.049Z,71.04
2018-03-15T06:40:32.202Z,73.73
2018-03-15T06:41:32.375Z,70.56
2018-03-15T06:42:32.504Z,72.75
2018-03-15T06:43:32.658Z,70.56
2018-03-15T06:44:32.810Z,71.53
2018-03-15T06:45:32.974Z,60.79
2018-03-15T06:46:33.148Z,73.00
2018-03-15T06:47:33.270Z,73.24
2018-03-15T06:48:33.423Z,75.20
2018-03-15T06:49:33.573Z,62.74
2018-03-15T06:50:33.725Z,75.93
2018-03-15T06:51:33.878Z,70.31
2018-03-15T06:52:34.052Z,71.78
2018-03-15T06:53:34.205Z,72.75
2018-03-15T06:54:34.366Z,72.75
2018-03-15T06:55:34.519Z,72.75
2018-03-15T06:56:34.671Z,73.00
2018-03-15T06:57:34.830Z,69.58
2018-03-15T06:58:34.978Z,68.85
2018-03-15T06:59:35.125Z,76.17
2018-03-15T07:00:35.278Z,61.77
2018-03-15T07:01:35.440Z,71.29
2018-03-15T07:02:35.593Z,66.65
2018-03-15T07:03:35.745Z,71.29
2018-03-15T07:04:35.902Z,75.44
2018-03-15T07:05:36.047Z,73.49
2018-03-15T07:06:36.200Z,57.37
2018-03-15T07:07:36.354Z,57.86
2018-03-15T07:08:36.596Z,71.78
2018-03-15T07:09:36.667Z,73.00
2018-03-15T07:10:36.804Z,74.95
2018-03-15T07:11:36.945Z,73.00
2018-03-15T07:15:08.809Z,72.02
2018-03-15T07:16:08.962Z,73.49
2018-03-15T07:17:09.110Z,69.82
2018-03-15T07:18:09.260Z,57.13
2018-03-15T07:19:09.412Z,70.31
2018-03-15T07:20:09.566Z,74.22
2018-03-15T07:21:09.714Z,76.42
2018-03-15T07:22:09.869Z,71.29
2018-03-15T07:23:10.030Z,73.49
2018-03-15T07:24:10.188Z,67.38
2018-03-15T07:25:10.333Z,73.00
2018-03-15T07:26:10.485Z,76.17
2018-03-15T07:27:10.642Z,73.73
2018-03-15T07:28:10.796Z,75.44
2018-03-15T07:29:10.957Z,72.27
2018-03-15T07:30:11.111Z,73.00
2018-03-15T07:31:11.265Z,71.78
2018-03-15T07:32:11.424Z,72.27
2018-03-15T07:33:11.575Z,74.71
2018-03-15T07:34:11.726Z,59.08
2018-03-15T07:35:11.878Z,56.40
2018-03-15T07:36:12.032Z,72.75
2018-03-15T07:37:12.191Z,55.66
2018-03-15T07:38:12.330Z,57.62
2018-03-15T07:39:12.484Z,58.35
2018-03-15T07:40:12.705Z,73.24
2018-03-15T07:41:12.799Z,71.78
2018-03-15T07:42:12.943Z,72.02
2018-03-15T07:43:13.087Z,73.00
2018-03-15T07:44:13.241Z,73.73
2018-03-15T07:45:13.392Z,55.42
2018-03-15T07:46:13.547Z,52.00
2018-03-15T07:47:13.694Z,59.57
2018-03-15T07:48:13.858Z,70.07
2018-03-15T07:49:14.010Z,55.18
2018-03-15T07:50:14.163Z,67.38
2018-03-15T07:51:14.326Z,67.38
2018-03-15T07:52:14.465Z,68.60
2018-03-15T07:53:14.619Z,73.97
2018-03-15T07:54:14.797Z,73.24
2018-03-15T07:55:14.910Z,55.91
2018-03-15T07:56:15.065Z,55.18
2018-03-15T07:57:15.215Z,68.85
2018-03-15T07:58:15.369Z,69.09
2018-03-15T07:59:15.568Z,70.31
2018-03-15T08:00:15.691Z,67.63
2018-03-15T08:01:15.840Z,50.54
2018-03-15T08:02:16.030Z,79.10
2018-03-15T08:03:16.168Z,65.43
2018-03-15T08:04:16.376Z,72.02
2018-03-15T08:05:16.494Z,60.79
2018-03-15T08:06:16.670Z,72.51
2018-03-15T08:07:16.843Z,76.90
2018-03-15T08:08:16.980Z,72.51
2018-03-15T08:09:17.128Z,73.73
2018-03-15T08:10:17.291Z,68.85
2018-03-15T08:11:17.443Z,66.65
2018-03-15T08:12:17.600Z,71.04
2018-03-15T08:13:17.761Z,71.78
2018-03-15T08:14:17.909Z,70.56
2018-03-15T08:15:18.058Z,70.07
2018-03-15T08:16:18.223Z,69.82
2018-03-15T08:17:18.377Z,71.78
2018-03-15T08:18:18.532Z,73.97
2018-03-15T08:19:18.686Z,69.82
2018-03-15T08:20:18.841Z,72.02
2018-03-15T08:21:19.031Z,75.93
2018-03-15T08:22:19.206Z,72.75
2018-03-15T08:23:19.377Z,73.00
2018-03-15T08:24:19.612Z,68.60
2018-03-15T08:25:19.716Z,51.76
2018-03-15T08:26:19.869Z,69.09
2018-03-15T08:27:20.024Z,73.73
2018-03-15T08:28:20.189Z,72.27
2018-03-15T08:29:20.335Z,68.85
2018-03-15T08:30:20.483Z,70.56
2018-03-15T08:31:20.637Z,62.01
2018-03-15T08:32:20.795Z,72.51
2018-03-15T08:33:20.966Z,69.34
2018-03-15T08:34:21.112Z,71.29
2018-03-15T08:35:21.247Z,55.42
2018-03-15T08:36:21.404Z,72.51
2018-03-15T08:37:21.555Z,76.42
2018-03-15T08:38:21.709Z,76.66
2018-03-15T08:39:21.865Z,68.60
2018-03-15T08:40:22.022Z,71.53
2018-03-15T08:41:22.173Z,62.50
2018-03-15T08:42:22.319Z,65.19
2018-03-15T08:43:22.477Z,71.04
2018-03-15T08:44:22.624Z,51.27
2018-03-15T08:45:22.813Z,70.80
2018-03-15T08:46:22.994Z,73.97
2018-03-15T08:47:23.172Z,74.22
2018-03-15T08:48:23.700Z,76.17
2018-03-15T08:49:23.481Z,75.93
2018-03-15T08:50:23.634Z,73.97
2018-03-15T08:51:23.791Z,51.51
2018-03-15T08:52:23.952Z,73.97
2018-03-15T08:53:24.114Z,71.04
2018-03-15T08:54:24.249Z,72.75
2018-03-15T08:55:24.409Z,71.29
2018-03-15T08:56:24.567Z,76.17
2018-03-15T08:57:24.729Z,73.00
2018-03-15T08:58:24.877Z,55.66
2018-03-15T08:59:25.041Z,68.12
2018-03-15T09:00:25.192Z,52.73
2018-03-15T09:01:25.348Z,68.60
2018-03-15T09:02:25.504Z,63.96
2018-03-15T09:03:25.660Z,74.46
2018-03-15T09:04:25.816Z,71.29
2018-03-15T09:05:25.978Z,72.75
2018-03-15T09:06:26.176Z,70.07
2018-03-15T09:07:26.340Z,72.27
2018-03-15T09:08:26.490Z,69.09
2018-03-15T09:09:26.670Z,55.42
2018-03-15T09:10:26.802Z,71.53
2018-03-15T09:11:26.958Z,54.20
2018-03-15T09:12:27.115Z,51.03
2018-03-15T09:13:27.272Z,56.15
2018-03-15T09:14:27.428Z,72.27
2018-03-15T09:15:27.592Z,70.07
2018-03-15T09:16:27.750Z,72.27
2018-03-15T09:17:27.907Z,76.42
2018-03-15T09:18:28.066Z,76.42
2018-03-15T09:19:28.231Z,69.34
2018-03-15T09:20:28.388Z,68.85
2018-03-15T09:21:28.578Z,61.77
2018-03-15T09:22:28.707Z,69.34
2018-03-15T09:23:28.880Z,73.00
2018-03-15T09:24:29.037Z,75.44
2018-03-15T09:25:29.197Z,71.29
2018-03-15T09:26:29.357Z,74.71
2018-03-15T09:27:29.521Z,73.73
2018-03-15T09:28:29.678Z,70.56
2018-03-15T09:29:29.841Z,70.31
2018-03-15T09:30:29.999Z,51.03
2018-03-15T09:31:30.209Z,72.75
2018-03-15T09:32:30.315Z,81.30
2018-03-15T09:33:30.481Z,77.64
2018-03-15T09:34:30.706Z,73.00
2018-03-15T09:35:30.800Z,69.34
2018-03-15T09:36:30.960Z,74.46
2018-03-15T09:37:31.127Z,72.27
2018-03-15T09:38:31.278Z,74.71
2018-03-15T09:39:31.487Z,72.27
2018-03-15T09:40:31.641Z,70.07
2018-03-15T09:41:31.774Z,71.29
2018-03-15T09:42:31.926Z,71.29
2018-03-15T09:43:32.089Z,73.00
2018-03-15T09:44:32.242Z,74.22
2018-03-15T09:45:32.408Z,70.56
2018-03-15T09:46:32.565Z,71.78
2018-03-15T09:47:32.716Z,74.46
2018-03-15T09:48:32.884Z,71.04
2018-03-15T09:49:33.030Z,45.90
2018-03-15T09:50:33.200Z,70.56
2018-03-15T09:51:33.344Z,72.27
2018-03-15T09:52:33.498Z,71.78
2018-03-15T09:53:33.657Z,50.29
2018-03-15T09:54:33.820Z,68.12
2018-03-15T09:55:33.971Z,69.09
2018-03-15T09:56:34.130Z,71.04
2018-03-15T09:57:34.280Z,71.78
2018-03-15T09:58:34.447Z,70.80
2018-03-15T09:59:34.606Z,76.42
2018-03-15T10:00:34.787Z,71.78
2018-03-15T10:01:34.916Z,73.00
2018-03-15T10:02:35.084Z,63.48
2018-03-15T10:03:35.244Z,71.29
2018-03-15T10:04:35.420Z,60.55
2018-03-15T10:05:35.575Z,47.61
2018-03-15T10:06:35.734Z,71.53
2018-03-15T10:07:35.893Z,61.28
2018-03-15T10:08:36.053Z,71.53
2018-03-15T10:09:36.208Z,73.24
2018-03-15T10:10:36.375Z,70.07
2018-03-15T10:11:36.532Z,71.29
2018-03-15T10:12:36.691Z,72.02
2018-03-15T10:13:36.852Z,75.68
2018-03-15T10:14:37.014Z,56.15
2018-03-15T10:15:37.173Z,72.51
2018-03-15T10:16:37.336Z,70.56
2018-03-15T10:17:37.490Z,72.75
2018-03-15T10:18:37.662Z,75.93
2018-03-15T10:19:37.813Z,77.15
2018-03-15T10:20:37.998Z,70.56
2018-03-15T10:21:38.156Z,73.49
2018-03-15T10:22:38.317Z,71.04
2018-03-15T10:23:38.476Z,74.95
2018-03-15T10:24:38.636Z,72.02
2018-03-15T10:25:38.796Z,78.37
2018-03-15T10:26:38.957Z,74.95
2018-03-15T10:27:39.118Z,51.76
2018-03-15T10:28:39.277Z,52.98
2018-03-15T10:29:39.436Z,72.02
2018-03-15T10:30:39.596Z,74.71
2018-03-15T10:31:39.758Z,70.07
2018-03-15T10:32:39.917Z,67.14
2018-03-15T10:33:40.078Z,73.97
2018-03-15T10:34:40.237Z,71.78
2018-03-15T10:35:40.396Z,72.51
2018-03-15T10:36:40.602Z,74.95
2018-03-15T10:37:40.711Z,68.12
2018-03-15T10:38:40.873Z,73.00
2018-03-15T10:39:41.033Z,71.78
2018-03-15T10:40:41.191Z,76.42
2018-03-15T10:41:41.356Z,73.00
2018-03-15T10:42:41.501Z,67.14
2018-03-15T10:43:41.663Z,71.53
2018-03-15T10:44:41.818Z,69.09
2018-03-15T10:45:41.981Z,56.88
2018-03-15T10:46:42.134Z,72.02
2018-03-15T10:47:42.308Z,74.46
2018-03-15T10:48:42.453Z,54.20
2018-03-15T10:49:42.613Z,70.56
2018-03-15T10:50:42.774Z,69.82
2018-03-15T10:51:42.933Z,60.06
2018-03-15T10:52:43.089Z,73.73
2018-03-15T10:53:43.251Z,73.73
2018-03-15T10:54:43.410Z,70.31
2018-03-15T10:55:43.571Z,72.51
2018-03-15T10:56:43.737Z,73.73
2018-03-15T10:57:43.897Z,72.02
2018-03-15T10:58:44.058Z,46.39
2018-03-15T10:59:46.830Z,69.09
2018-03-15T11:00:44.441Z,76.42
2018-03-15T11:01:44.600Z,71.78
2018-03-15T11:02:44.762Z,51.76
2018-03-15T11:03:44.918Z,73.49
2018-03-15T11:04:45.101Z,71.04
2018-03-15T11:05:45.237Z,75.44
2018-03-15T11:06:45.397Z,71.78
2018-03-15T11:07:45.562Z,69.09
2018-03-15T11:08:45.727Z,67.87
2018-03-15T11:09:45.884Z,73.97
2018-03-15T11:10:46.037Z,73.00
2018-03-15T11:11:46.197Z,70.07
2018-03-15T11:12:46.374Z,71.53
2018-03-15T11:13:46.520Z,74.95
2018-03-15T11:14:46.680Z,71.78
2018-03-15T11:15:46.843Z,52.98
2018-03-15T11:16:47.007Z,73.97
2018-03-15T11:17:47.164Z,73.97
2018-03-15T11:18:47.324Z,68.85
2018-03-15T11:19:47.482Z,59.33
2018-03-15T11:20:47.673Z,75.68
2018-03-15T11:21:47.837Z,63.48
2018-03-15T11:22:47.985Z,71.29
2018-03-15T11:23:48.180Z,71.04
2018-03-15T11:24:48.300Z,73.97
2018-03-15T11:25:48.454Z,59.33
2018-03-15T11:26:48.624Z,70.07
2018-03-15T11:27:48.772Z,73.24
2018-03-15T11:28:48.934Z,70.80
2018-03-15T11:29:49.092Z,69.82
2018-03-15T11:30:49.281Z,74.46
2018-03-15T11:31:49.406Z,73.73
2018-03-15T11:38:53.224Z,72.27
2018-03-15T11:39:53.384Z,71.53
2018-03-15T11:40:53.573Z,75.20
2018-03-15T11:41:53.708Z,74.22
2018-03-15T11:42:53.865Z,72.27
2018-03-15T11:43:54.030Z,74.22
2018-03-15T11:44:54.188Z,67.38
2018-03-15T11:45:54.356Z,75.68
2018-03-15T11:46:54.515Z,72.51
2018-03-15T11:47:54.676Z,76.17
2018-03-15T11:48:54.845Z,53.71
2018-03-15T11:49:55.006Z,71.78
2018-03-15T11:50:55.170Z,76.66
2018-03-15T11:51:55.337Z,54.20
2018-03-15T11:52:55.487Z,73.24
2018-03-15T11:53:55.648Z,58.11
2018-03-15T11:54:55.811Z,73.24
2018-03-15T11:55:55.970Z,69.82
2018-03-15T11:56:56.126Z,68.12
2018-03-15T11:57:56.289Z,47.12
2018-03-15T11:58:56.450Z,71.53
2018-03-15T11:59:56.619Z,51.27
2018-03-15T12:00:56.866Z,71.53
2018-03-15T12:01:56.900Z,76.90
2018-03-15T12:02:57.054Z,74.22
2018-03-15T12:03:57.215Z,73.97
2018-03-15T12:04:57.369Z,72.51
2018-03-15T12:05:57.553Z,53.22
2018-03-15T12:07:57.810Z,53.47
2018-03-15T12:09:12.646Z,71.53
2018-03-15T12:09:58.169Z,63.96
2018-03-15T12:10:58.304Z,52.98
2018-03-15T12:11:58.478Z,75.20
2018-03-15T12:12:58.629Z,73.00
2018-03-15T12:13:58.796Z,68.12
2018-03-15T12:14:59.131Z,74.95
2018-03-15T12:15:59.089Z,61.04
2018-03-15T12:16:59.235Z,73.97
2018-03-15T12:17:59.710Z,72.27
2018-03-15T12:18:59.557Z,72.02
2018-03-15T12:20:00.558Z,70.56
2018-03-15T12:20:59.912Z,72.51
2018-03-15T12:22:00.072Z,74.22
2018-03-15T12:23:00.226Z,77.88
2018-03-15T12:24:00.385Z,73.24
2018-03-15T12:25:00.542Z,68.60
2018-03-15T12:26:00.707Z,74.95
2018-03-15T12:27:00.866Z,73.00
2018-03-15T12:28:01.027Z,73.97
2018-03-15T12:29:01.180Z,69.82
2018-03-15T12:30:01.334Z,73.97
2018-03-15T12:31:01.499Z,71.53
2018-03-15T12:32:01.667Z,71.04
2018-03-15T12:33:01.817Z,70.07
2018-03-15T12:34:02.051Z,74.46
2018-03-15T12:35:02.140Z,73.00
2018-03-15T12:36:02.299Z,61.52
2018-03-15T12:37:02.460Z,75.20
2018-03-15T12:38:02.647Z,72.75
2018-03-15T12:39:02.789Z,70.56
2018-03-15T12:40:02.949Z,63.48
2018-03-15T12:41:03.109Z,72.27
2018-03-15T12:42:03.265Z,75.20
2018-03-15T12:43:03.431Z,73.49
2018-03-15T12:44:03.586Z,63.72
2018-03-15T12:45:03.760Z,71.04
2018-03-15T12:46:03.920Z,74.71
2018-03-15T12:47:04.079Z,69.58
2018-03-15T12:48:04.244Z,77.39
2018-03-15T12:49:04.411Z,74.95
2018-03-15T12:50:04.574Z,72.02
2018-03-15T12:51:04.729Z,76.66
2018-03-15T12:52:04.896Z,59.57
2018-03-15T12:53:05.049Z,48.10
2018-03-15T12:54:05.218Z,74.46
2018-03-15T12:55:05.369Z,71.78
2018-03-15T12:56:05.530Z,72.27
2018-03-15T12:57:05.696Z,69.82
2018-03-15T12:58:05.860Z,65.43
2018-03-15T12:59:06.014Z,54.20
2018-03-15T13:00:12.009Z,74.71
2018-03-15T13:01:06.338Z,72.75
2018-03-15T13:02:06.503Z,71.53
2018-03-15T13:03:06.657Z,73.49
2018-03-15T13:04:06.826Z,69.09
2018-03-15T13:05:06.979Z,70.31
2018-03-15T13:06:07.146Z,69.09